sensor_id;sensor_type;location;lat;lon;timestamp;P1;durP1;ratioP1;P2;durP2;ratioP2
18574;SDS011;9417;16.484;102.872;2023-12-20T00:00:25;50.05;;;29.73;;
18574;SDS011;9417;16.484;102.872;2023-12-20T00:02:32;57.50;;;33.80;;
18574;SDS011;9417;16.484;102.872;2023-12-20T00:04:40;59.50;;;33.30;;
18574;SDS011;9417;16.484;102.872;2023-12-20T00:06:47;59.38;;;34.30;;
18574;SDS011;9417;16.484;102.872;2023-12-20T00:08:53;59.15;;;33.65;;
18574;SDS011;9417;16.484;102.872;2023-12-20T00:11:01;65.00;;;34.75;;
18574;SDS011;9417;16.484;102.872;2023-12-20T00:13:08;58.67;;;29.83;;
18574;SDS011;9417;16.484;102.872;2023-12-20T00:15:16;55.85;;;29.83;;
18574;SDS011;9417;16.484;102.872;2023-12-20T00:17:23;80.57;;;43.58;;
18574;SDS011;9417;16.484;102.872;2023-12-20T00:19:30;64.30;;;38.75;;
18574;SDS011;9417;16.484;102.872;2023-12-20T00:21:38;69.22;;;39.72;;
18574;SDS011;9417;16.484;102.872;2023-12-20T00:23:45;68.70;;;43.33;;
18574;SDS011;9417;16.484;102.872;2023-12-20T00:25:52;59.92;;;42.30;;
18574;SDS011;9417;16.484;102.872;2023-12-20T00:27:59;31.55;;;27.23;;
18574;SDS011;9417;16.484;102.872;2023-12-20T00:30:07;30.63;;;24.00;;
18574;SDS011;9417;16.484;102.872;2023-12-20T00:32:15;19.95;;;11.35;;
18574;SDS011;9417;16.484;102.872;2023-12-20T00:34:23;18.80;;;15.13;;
18574;SDS011;9417;16.484;102.872;2023-12-20T00:36:30;20.52;;;18.58;;
18574;SDS011;9417;16.484;102.872;2023-12-20T00:38:39;10.77;;;7.35;;
18574;SDS011;9417;16.484;102.872;2023-12-20T00:40:46;17.40;;;10.50;;
18574;SDS011;9417;16.484;102.872;2023-12-20T00:42:53;13.98;;;8.93;;
18574;SDS011;9417;16.484;102.872;2023-12-20T00:45:00;18.08;;;10.43;;
18574;SDS011;9417;16.484;102.872;2023-12-20T00:47:08;18.58;;;10.63;;
18574;SDS011;9417;16.484;102.872;2023-12-20T00:49:15;14.70;;;9.32;;
18574;SDS011;9417;16.484;102.872;2023-12-20T00:51:23;14.25;;;9.13;;
18574;SDS011;9417;16.484;102.872;2023-12-20T00:53:30;12.60;;;7.38;;
18574;SDS011;9417;16.484;102.872;2023-12-20T00:55:38;12.80;;;7.47;;
18574;SDS011;9417;16.484;102.872;2023-12-20T00:57:45;24.00;;;19.48;;
18574;SDS011;9417;16.484;102.872;2023-12-20T00:59:53;37.47;;;31.38;;
18574;SDS011;9417;16.484;102.872;2023-12-20T01:02:00;21.95;;;14.95;;
18574;SDS011;9417;16.484;102.872;2023-12-20T01:04:07;19.52;;;12.65;;
18574;SDS011;9417;16.484;102.872;2023-12-20T01:06:15;24.05;;;19.10;;
18574;SDS011;9417;16.484;102.872;2023-12-20T01:08:22;22.48;;;13.43;;
18574;SDS011;9417;16.484;102.872;2023-12-20T01:10:30;15.70;;;11.77;;
18574;SDS011;9417;16.484;102.872;2023-12-20T01:12:37;13.32;;;9.32;;
18574;SDS011;9417;16.484;102.872;2023-12-20T01:14:44;15.60;;;11.18;;
18574;SDS011;9417;16.484;102.872;2023-12-20T01:16:51;14.18;;;10.32;;
18574;SDS011;9417;16.484;102.872;2023-12-20T01:18:59;15.80;;;10.75;;
18574;SDS011;9417;16.484;102.872;2023-12-20T01:21:06;27.65;;;24.83;;
18574;SDS011;9417;16.484;102.872;2023-12-20T01:23:13;21.20;;;14.00;;
18574;SDS011;9417;16.484;102.872;2023-12-20T01:25:20;18.17;;;14.18;;
18574;SDS011;9417;16.484;102.872;2023-12-20T01:27:28;13.38;;;9.90;;
18574;SDS011;9417;16.484;102.872;2023-12-20T01:29:36;10.32;;;6.65;;
18574;SDS011;9417;16.484;102.872;2023-12-20T01:31:44;16.98;;;10.93;;
18574;SDS011;9417;16.484;102.872;2023-12-20T01:33:51;13.77;;;8.82;;
18574;SDS011;9417;16.484;102.872;2023-12-20T01:35:58;16.55;;;9.88;;
18574;SDS011;9417;16.484;102.872;2023-12-20T01:38:06;18.05;;;11.85;;
18574;SDS011;9417;16.484;102.872;2023-12-20T01:40:12;17.55;;;12.45;;
18574;SDS011;9417;16.484;102.872;2023-12-20T01:42:19;17.35;;;11.20;;
18574;SDS011;9417;16.484;102.872;2023-12-20T01:44:25;11.77;;;8.10;;
18574;SDS011;9417;16.484;102.872;2023-12-20T01:46:34;10.18;;;6.57;;
18574;SDS011;9417;16.484;102.872;2023-12-20T01:48:42;9.40;;;6.80;;
18574;SDS011;9417;16.484;102.872;2023-12-20T01:50:49;7.18;;;5.53;;
18574;SDS011;9417;16.484;102.872;2023-12-20T01:52:57;7.25;;;5.13;;
18574;SDS011;9417;16.484;102.872;2023-12-20T01:55:06;20.17;;;18.10;;
18574;SDS011;9417;16.484;102.872;2023-12-20T01:57:17;18.63;;;16.83;;
18574;SDS011;9417;16.484;102.872;2023-12-20T01:59:24;18.92;;;17.02;;
18574;SDS011;9417;16.484;102.872;2023-12-20T02:01:31;20.33;;;18.35;;
18574;SDS011;9417;16.484;102.872;2023-12-20T02:03:41;20.60;;;18.50;;
18574;SDS011;9417;16.484;102.872;2023-12-20T02:05:48;7.15;;;5.68;;
18574;SDS011;9417;16.484;102.872;2023-12-20T02:07:56;9.13;;;5.97;;
18574;SDS011;9417;16.484;102.872;2023-12-20T02:10:04;7.68;;;5.40;;
18574;SDS011;9417;16.484;102.872;2023-12-20T02:12:11;8.23;;;5.68;;
18574;SDS011;9417;16.484;102.872;2023-12-20T02:14:18;9.50;;;6.38;;
18574;SDS011;9417;16.484;102.872;2023-12-20T02:16:26;33.35;;;23.42;;
18574;SDS011;9417;16.484;102.872;2023-12-20T02:18:35;11.20;;;6.40;;
18574;SDS011;9417;16.484;102.872;2023-12-20T02:20:42;11.32;;;7.55;;
18574;SDS011;9417;16.484;102.872;2023-12-20T02:22:51;6.95;;;5.00;;
18574;SDS011;9417;16.484;102.872;2023-12-20T02:24:58;21.38;;;13.25;;
18574;SDS011;9417;16.484;102.872;2023-12-20T02:27:05;23.10;;;15.43;;
18574;SDS011;9417;16.484;102.872;2023-12-20T02:29:13;9.38;;;6.25;;
18574;SDS011;9417;16.484;102.872;2023-12-20T02:31:21;20.30;;;12.15;;
18574;SDS011;9417;16.484;102.872;2023-12-20T02:33:29;8.85;;;6.07;;
18574;SDS011;9417;16.484;102.872;2023-12-20T02:35:36;14.13;;;9.27;;
18574;SDS011;9417;16.484;102.872;2023-12-20T02:37:44;10.25;;;6.35;;
18574;SDS011;9417;16.484;102.872;2023-12-20T02:39:53;12.00;;;10.15;;
18574;SDS011;9417;16.484;102.872;2023-12-20T02:42:00;29.85;;;25.15;;
18574;SDS011;9417;16.484;102.872;2023-12-20T02:44:08;11.02;;;8.73;;
18574;SDS011;9417;16.484;102.872;2023-12-20T02:46:15;15.95;;;11.20;;
18574;SDS011;9417;16.484;102.872;2023-12-20T02:48:24;9.32;;;7.07;;
18574;SDS011;9417;16.484;102.872;2023-12-20T02:50:31;8.02;;;4.60;;
18574;SDS011;9417;16.484;102.872;2023-12-20T02:52:38;6.35;;;4.65;;
18574;SDS011;9417;16.484;102.872;2023-12-20T02:54:45;6.15;;;4.75;;
18574;SDS011;9417;16.484;102.872;2023-12-20T02:56:54;26.38;;;18.45;;
18574;SDS011;9417;16.484;102.872;2023-12-20T02:59:01;9.75;;;7.22;;
18574;SDS011;9417;16.484;102.872;2023-12-20T03:01:09;9.85;;;6.90;;
18574;SDS011;9417;16.484;102.872;2023-12-20T03:03:17;6.20;;;5.30;;
18574;SDS011;9417;16.484;102.872;2023-12-20T03:05:24;10.00;;;5.78;;
18574;SDS011;9417;16.484;102.872;2023-12-20T03:07:32;22.08;;;16.23;;
18574;SDS011;9417;16.484;102.872;2023-12-20T03:09:39;96.80;;;55.78;;
18574;SDS011;9417;16.484;102.872;2023-12-20T03:12:06;80.30;;;47.03;;
18574;SDS011;9417;16.484;102.872;2023-12-20T03:14:14;62.35;;;39.47;;
18574;SDS011;9417;16.484;102.872;2023-12-20T03:16:21;33.05;;;21.23;;
18574;SDS011;9417;16.484;102.872;2023-12-20T03:18:28;41.88;;;18.02;;
18574;SDS011;9417;16.484;102.872;2023-12-20T03:20:35;14.05;;;11.35;;
18574;SDS011;9417;16.484;102.872;2023-12-20T03:22:44;27.70;;;19.05;;
18574;SDS011;9417;16.484;102.872;2023-12-20T03:24:51;20.80;;;14.00;;
18574;SDS011;9417;16.484;102.872;2023-12-20T03:26:58;57.70;;;37.58;;
18574;SDS011;9417;16.484;102.872;2023-12-20T03:29:07;24.65;;;17.65;;
18574;SDS011;9417;16.484;102.872;2023-12-20T03:31:14;22.80;;;13.40;;
18574;SDS011;9417;16.484;102.872;2023-12-20T03:33:22;15.00;;;9.18;;
18574;SDS011;9417;16.484;102.872;2023-12-20T03:35:29;15.70;;;9.52;;
18574;SDS011;9417;16.484;102.872;2023-12-20T03:37:36;11.70;;;8.23;;
18574;SDS011;9417;16.484;102.872;2023-12-20T03:39:42;11.93;;;7.55;;
18574;SDS011;9417;16.484;102.872;2023-12-20T03:41:49;13.77;;;10.65;;
18574;SDS011;9417;16.484;102.872;2023-12-20T03:43:56;34.80;;;31.42;;
18574;SDS011;9417;16.484;102.872;2023-12-20T03:46:05;30.85;;;28.45;;
18574;SDS011;9417;16.484;102.872;2023-12-20T03:48:14;27.98;;;25.83;;
18574;SDS011;9417;16.484;102.872;2023-12-20T03:50:22;12.15;;;9.05;;
18574;SDS011;9417;16.484;102.872;2023-12-20T03:52:29;12.50;;;8.55;;
18574;SDS011;9417;16.484;102.872;2023-12-20T03:54:36;13.02;;;8.45;;
18574;SDS011;9417;16.484;102.872;2023-12-20T03:56:42;12.88;;;8.60;;
18574;SDS011;9417;16.484;102.872;2023-12-20T03:58:49;13.25;;;9.45;;
18574;SDS011;9417;16.484;102.872;2023-12-20T04:00:56;15.18;;;11.30;;
18574;SDS011;9417;16.484;102.872;2023-12-20T04:03:06;16.55;;;12.10;;
18574;SDS011;9417;16.484;102.872;2023-12-20T04:05:12;14.15;;;11.38;;
18574;SDS011;9417;16.484;102.872;2023-12-20T04:07:19;13.43;;;10.65;;
18574;SDS011;9417;16.484;102.872;2023-12-20T04:09:27;15.93;;;11.93;;
18574;SDS011;9417;16.484;102.872;2023-12-20T04:11:35;16.90;;;11.80;;
18574;SDS011;9417;16.484;102.872;2023-12-20T04:13:43;15.02;;;11.98;;
18574;SDS011;9417;16.484;102.872;2023-12-20T04:15:50;14.93;;;11.23;;
18574;SDS011;9417;16.484;102.872;2023-12-20T04:17:57;16.48;;;12.27;;
18574;SDS011;9417;16.484;102.872;2023-12-20T04:20:05;16.33;;;12.80;;
18574;SDS011;9417;16.484;102.872;2023-12-20T04:22:13;15.68;;;12.73;;
18574;SDS011;9417;16.484;102.872;2023-12-20T04:24:21;18.05;;;12.30;;
18574;SDS011;9417;16.484;102.872;2023-12-20T04:26:28;15.40;;;12.68;;
18574;SDS011;9417;16.484;102.872;2023-12-20T04:28:35;15.68;;;12.38;;
18574;SDS011;9417;16.484;102.872;2023-12-20T04:30:42;14.93;;;11.95;;
18574;SDS011;9417;16.484;102.872;2023-12-20T04:32:49;14.65;;;10.50;;
18574;SDS011;9417;16.484;102.872;2023-12-20T04:34:57;12.70;;;9.93;;
18574;SDS011;9417;16.484;102.872;2023-12-20T04:37:06;14.80;;;10.27;;
18574;SDS011;9417;16.484;102.872;2023-12-20T04:39:13;12.15;;;8.25;;
18574;SDS011;9417;16.484;102.872;2023-12-20T04:41:19;10.40;;;8.68;;
18574;SDS011;9417;16.484;102.872;2023-12-20T04:43:26;10.65;;;9.07;;
18574;SDS011;9417;16.484;102.872;2023-12-20T04:45:33;9.05;;;7.53;;
18574;SDS011;9417;16.484;102.872;2023-12-20T04:47:41;10.48;;;6.68;;
18574;SDS011;9417;16.484;102.872;2023-12-20T04:49:50;8.95;;;7.55;;
18574;SDS011;9417;16.484;102.872;2023-12-20T04:51:58;7.93;;;6.38;;
18574;SDS011;9417;16.484;102.872;2023-12-20T04:54:07;9.48;;;6.10;;
18574;SDS011;9417;16.484;102.872;2023-12-20T04:56:14;8.82;;;6.55;;
18574;SDS011;9417;16.484;102.872;2023-12-20T04:58:21;9.10;;;6.05;;
18574;SDS011;9417;16.484;102.872;2023-12-20T05:00:29;8.77;;;6.47;;
18574;SDS011;9417;16.484;102.872;2023-12-20T05:02:36;12.77;;;6.65;;
18574;SDS011;9417;16.484;102.872;2023-12-20T05:04:43;8.45;;;6.60;;
18574;SDS011;9417;16.484;102.872;2023-12-20T05:06:50;10.05;;;7.32;;
18574;SDS011;9417;16.484;102.872;2023-12-20T05:08:57;9.27;;;6.50;;
18574;SDS011;9417;16.484;102.872;2023-12-20T05:11:06;7.10;;;5.47;;
18574;SDS011;9417;16.484;102.872;2023-12-20T05:13:14;6.80;;;5.30;;
18574;SDS011;9417;16.484;102.872;2023-12-20T05:15:19;6.68;;;5.20;;
18574;SDS011;9417;16.484;102.872;2023-12-20T05:17:27;8.13;;;5.22;;
18574;SDS011;9417;16.484;102.872;2023-12-20T05:19:34;7.60;;;5.60;;
18574;SDS011;9417;16.484;102.872;2023-12-20T05:21:41;5.63;;;4.50;;
18574;SDS011;9417;16.484;102.872;2023-12-20T05:23:48;8.63;;;5.22;;
18574;SDS011;9417;16.484;102.872;2023-12-20T05:25:55;7.03;;;5.13;;
18574;SDS011;9417;16.484;102.872;2023-12-20T05:28:04;7.90;;;5.88;;
18574;SDS011;9417;16.484;102.872;2023-12-20T05:30:12;8.40;;;5.57;;
18574;SDS011;9417;16.484;102.872;2023-12-20T05:32:19;6.80;;;5.72;;
18574;SDS011;9417;16.484;102.872;2023-12-20T05:34:27;6.28;;;5.18;;
18574;SDS011;9417;16.484;102.872;2023-12-20T05:36:34;6.80;;;5.47;;
18574;SDS011;9417;16.484;102.872;2023-12-20T05:38:42;7.75;;;5.20;;
18574;SDS011;9417;16.484;102.872;2023-12-20T05:40:49;7.57;;;5.40;;
18574;SDS011;9417;16.484;102.872;2023-12-20T05:42:57;6.50;;;5.20;;
18574;SDS011;9417;16.484;102.872;2023-12-20T05:45:06;9.50;;;6.20;;
18574;SDS011;9417;16.484;102.872;2023-12-20T05:47:14;6.82;;;5.28;;
18574;SDS011;9417;16.484;102.872;2023-12-20T05:49:21;8.32;;;4.97;;
18574;SDS011;9417;16.484;102.872;2023-12-20T05:51:29;8.32;;;5.10;;
18574;SDS011;9417;16.484;102.872;2023-12-20T05:53:36;7.43;;;5.88;;
18574;SDS011;9417;16.484;102.872;2023-12-20T05:55:43;8.98;;;5.85;;
18574;SDS011;9417;16.484;102.872;2023-12-20T05:57:50;7.13;;;6.05;;
18574;SDS011;9417;16.484;102.872;2023-12-20T05:59:57;6.18;;;5.40;;
18574;SDS011;9417;16.484;102.872;2023-12-20T06:02:15;6.28;;;5.22;;
18574;SDS011;9417;16.484;102.872;2023-12-20T06:04:22;6.82;;;5.50;;
18574;SDS011;9417;16.484;102.872;2023-12-20T06:06:29;7.80;;;5.95;;
18574;SDS011;9417;16.484;102.872;2023-12-20T06:08:36;9.55;;;5.63;;
18574;SDS011;9417;16.484;102.872;2023-12-20T06:10:43;7.40;;;6.00;;
18574;SDS011;9417;16.484;102.872;2023-12-20T06:12:51;6.20;;;5.38;;
18574;SDS011;9417;16.484;102.872;2023-12-20T06:14:59;7.35;;;5.72;;
18574;SDS011;9417;16.484;102.872;2023-12-20T06:17:06;6.88;;;5.80;;
18574;SDS011;9417;16.484;102.872;2023-12-20T06:19:15;7.38;;;5.72;;
18574;SDS011;9417;16.484;102.872;2023-12-20T06:21:22;6.22;;;5.63;;
18574;SDS011;9417;16.484;102.872;2023-12-20T06:23:29;5.75;;;4.28;;
18574;SDS011;9417;16.484;102.872;2023-12-20T06:25:37;6.60;;;4.75;;
18574;SDS011;9417;16.484;102.872;2023-12-20T06:27:44;7.82;;;5.55;;
18574;SDS011;9417;16.484;102.872;2023-12-20T06:29:52;7.95;;;5.70;;
18574;SDS011;9417;16.484;102.872;2023-12-20T06:31:59;7.95;;;7.10;;
18574;SDS011;9417;16.484;102.872;2023-12-20T06:34:06;9.82;;;7.15;;
18574;SDS011;9417;16.484;102.872;2023-12-20T06:36:16;8.70;;;6.18;;
18574;SDS011;9417;16.484;102.872;2023-12-20T06:38:23;6.57;;;3.90;;
18574;SDS011;9417;16.484;102.872;2023-12-20T06:40:30;4.18;;;3.78;;
18574;SDS011;9417;16.484;102.872;2023-12-20T06:42:38;6.15;;;4.00;;
18574;SDS011;9417;16.484;102.872;2023-12-20T06:45:00;4.88;;;4.38;;
18574;SDS011;9417;16.484;102.872;2023-12-20T06:47:08;9.95;;;8.40;;
18574;SDS011;9417;16.484;102.872;2023-12-20T06:49:15;8.20;;;6.05;;
18574;SDS011;9417;16.484;102.872;2023-12-20T06:51:24;7.15;;;5.68;;
18574;SDS011;9417;16.484;102.872;2023-12-20T06:53:31;7.82;;;5.60;;
18574;SDS011;9417;16.484;102.872;2023-12-20T06:55:37;8.40;;;5.90;;
18574;SDS011;9417;16.484;102.872;2023-12-20T06:57:44;10.18;;;5.70;;
18574;SDS011;9417;16.484;102.872;2023-12-20T06:59:52;8.70;;;5.30;;
18574;SDS011;9417;16.484;102.872;2023-12-20T07:01:59;7.13;;;5.47;;
18574;SDS011;9417;16.484;102.872;2023-12-20T07:04:07;6.90;;;5.03;;
18574;SDS011;9417;16.484;102.872;2023-12-20T07:06:14;6.53;;;5.50;;
18574;SDS011;9417;16.484;102.872;2023-12-20T07:08:23;6.88;;;5.75;;
18574;SDS011;9417;16.484;102.872;2023-12-20T07:10:30;7.38;;;6.10;;
18574;SDS011;9417;16.484;102.872;2023-12-20T07:12:37;9.77;;;6.97;;
18574;SDS011;9417;16.484;102.872;2023-12-20T07:14:45;7.18;;;5.55;;
18574;SDS011;9417;16.484;102.872;2023-12-20T07:16:51;6.97;;;5.13;;
18574;SDS011;9417;16.484;102.872;2023-12-20T07:18:58;7.32;;;5.47;;
18574;SDS011;9417;16.484;102.872;2023-12-20T07:21:05;9.68;;;5.65;;
18574;SDS011;9417;16.484;102.872;2023-12-20T07:23:11;7.50;;;6.35;;
18574;SDS011;9417;16.484;102.872;2023-12-20T07:25:20;6.85;;;5.20;;
18574;SDS011;9417;16.484;102.872;2023-12-20T07:27:28;5.70;;;5.10;;
18574;SDS011;9417;16.484;102.872;2023-12-20T07:29:34;4.53;;;3.08;;
18574;SDS011;9417;16.484;102.872;2023-12-20T07:31:41;4.78;;;2.90;;
18574;SDS011;9417;16.484;102.872;2023-12-20T07:33:48;6.25;;;2.70;;
18574;SDS011;9417;16.484;102.872;2023-12-20T07:35:55;4.45;;;2.97;;
18574;SDS011;9417;16.484;102.872;2023-12-20T07:38:03;5.93;;;3.13;;
18574;SDS011;9417;16.484;102.872;2023-12-20T07:40:10;3.65;;;3.15;;
18574;SDS011;9417;16.484;102.872;2023-12-20T07:42:19;6.63;;;4.10;;
18574;SDS011;9417;16.484;102.872;2023-12-20T07:44:27;4.07;;;3.67;;
18574;SDS011;9417;16.484;102.872;2023-12-20T07:46:34;5.93;;;3.38;;
18574;SDS011;9417;16.484;102.872;2023-12-20T07:48:41;6.53;;;3.00;;
18574;SDS011;9417;16.484;102.872;2023-12-20T07:50:50;5.25;;;3.75;;
18574;SDS011;9417;16.484;102.872;2023-12-20T07:52:57;3.88;;;2.92;;
18574;SDS011;9417;16.484;102.872;2023-12-20T07:55:05;4.55;;;2.80;;
18574;SDS011;9417;16.484;102.872;2023-12-20T07:57:13;3.03;;;2.72;;
18574;SDS011;9417;16.484;102.872;2023-12-20T07:59:21;3.28;;;2.90;;
18574;SDS011;9417;16.484;102.872;2023-12-20T08:01:34;4.20;;;3.08;;
18574;SDS011;9417;16.484;102.872;2023-12-20T08:03:42;3.30;;;2.92;;
18574;SDS011;9417;16.484;102.872;2023-12-20T08:05:50;7.22;;;5.55;;
18574;SDS011;9417;16.484;102.872;2023-12-20T08:07:57;4.68;;;3.20;;
18574;SDS011;9417;16.484;102.872;2023-12-20T08:10:04;5.40;;;2.60;;
18574;SDS011;9417;16.484;102.872;2023-12-20T08:12:12;5.03;;;2.92;;
18574;SDS011;9417;16.484;102.872;2023-12-20T08:14:22;7.15;;;2.47;;
18574;SDS011;9417;16.484;102.872;2023-12-20T08:16:28;5.10;;;2.42;;
18574;SDS011;9417;16.484;102.872;2023-12-20T08:18:35;3.72;;;2.45;;
18574;SDS011;9417;16.484;102.872;2023-12-20T08:20:42;4.97;;;3.83;;
18574;SDS011;9417;16.484;102.872;2023-12-20T08:22:50;9.10;;;5.05;;
18574;SDS011;9417;16.484;102.872;2023-12-20T08:24:56;4.68;;;3.83;;
18574;SDS011;9417;16.484;102.872;2023-12-20T08:27:03;4.35;;;3.20;;
18574;SDS011;9417;16.484;102.872;2023-12-20T08:29:12;4.75;;;3.40;;
18574;SDS011;9417;16.484;102.872;2023-12-20T08:31:21;6.07;;;3.70;;
18574;SDS011;9417;16.484;102.872;2023-12-20T08:33:29;3.60;;;3.30;;
18574;SDS011;9417;16.484;102.872;2023-12-20T08:35:37;7.68;;;3.47;;
18574;SDS011;9417;16.484;102.872;2023-12-20T08:37:44;4.35;;;3.15;;
18574;SDS011;9417;16.484;102.872;2023-12-20T08:39:51;3.00;;;2.70;;
18574;SDS011;9417;16.484;102.872;2023-12-20T08:41:58;4.13;;;2.72;;
18574;SDS011;9417;16.484;102.872;2023-12-20T08:44:05;3.70;;;2.80;;
18574;SDS011;9417;16.484;102.872;2023-12-20T08:46:14;4.57;;;3.70;;
18574;SDS011;9417;16.484;102.872;2023-12-20T08:48:23;9.50;;;6.15;;
18574;SDS011;9417;16.484;102.872;2023-12-20T08:50:30;5.65;;;4.88;;
18574;SDS011;9417;16.484;102.872;2023-12-20T08:52:37;6.93;;;5.32;;
18574;SDS011;9417;16.484;102.872;2023-12-20T08:54:46;7.22;;;5.30;;
18574;SDS011;9417;16.484;102.872;2023-12-20T08:56:55;8.50;;;4.30;;
18574;SDS011;9417;16.484;102.872;2023-12-20T08:59:02;7.80;;;4.30;;
18574;SDS011;9417;16.484;102.872;2023-12-20T09:01:09;8.00;;;4.22;;
18574;SDS011;9417;16.484;102.872;2023-12-20T09:03:17;6.85;;;4.78;;
18574;SDS011;9417;16.484;102.872;2023-12-20T09:05:26;7.57;;;3.95;;
18574;SDS011;9417;16.484;102.872;2023-12-20T09:07:33;8.48;;;5.22;;
18574;SDS011;9417;16.484;102.872;2023-12-20T09:09:39;10.43;;;5.35;;
18574;SDS011;9417;16.484;102.872;2023-12-20T09:11:47;7.90;;;3.92;;
18574;SDS011;9417;16.484;102.872;2023-12-20T09:13:54;6.25;;;4.65;;
18574;SDS011;9417;16.484;102.872;2023-12-20T09:16:02;7.47;;;4.28;;
18574;SDS011;9417;16.484;102.872;2023-12-20T09:18:10;6.40;;;3.58;;
18574;SDS011;9417;16.484;102.872;2023-12-20T09:20:17;7.40;;;4.03;;
18574;SDS011;9417;16.484;102.872;2023-12-20T09:22:26;10.82;;;9.98;;
18574;SDS011;9417;16.484;102.872;2023-12-20T09:24:33;10.93;;;9.93;;
18574;SDS011;9417;16.484;102.872;2023-12-20T09:26:41;22.73;;;20.35;;
18574;SDS011;9417;16.484;102.872;2023-12-20T09:28:48;3.92;;;3.33;;
18574;SDS011;9417;16.484;102.872;2023-12-20T09:30:55;6.07;;;3.55;;
18574;SDS011;9417;16.484;102.872;2023-12-20T09:33:03;5.95;;;2.97;;
18574;SDS011;9417;16.484;102.872;2023-12-20T09:35:11;3.30;;;2.75;;
18574;SDS011;9417;16.484;102.872;2023-12-20T09:37:19;3.95;;;2.60;;
18574;SDS011;9417;16.484;102.872;2023-12-20T09:39:28;4.13;;;3.00;;
18574;SDS011;9417;16.484;102.872;2023-12-20T09:41:36;4.72;;;2.80;;
18574;SDS011;9417;16.484;102.872;2023-12-20T09:43:49;3.03;;;2.50;;
18574;SDS011;9417;16.484;102.872;2023-12-20T09:46:00;2.85;;;2.38;;
18574;SDS011;9417;16.484;102.872;2023-12-20T09:48:10;4.45;;;2.35;;
18574;SDS011;9417;16.484;102.872;2023-12-20T09:50:19;3.95;;;2.90;;
18574;SDS011;9417;16.484;102.872;2023-12-20T09:52:26;5.68;;;2.63;;
18574;SDS011;9417;16.484;102.872;2023-12-20T09:54:36;3.40;;;2.72;;
18574;SDS011;9417;16.484;102.872;2023-12-20T09:56:44;3.17;;;2.70;;
18574;SDS011;9417;16.484;102.872;2023-12-20T09:58:51;4.07;;;2.95;;
18574;SDS011;9417;16.484;102.872;2023-12-20T10:00:59;6.05;;;3.00;;
18574;SDS011;9417;16.484;102.872;2023-12-20T10:03:07;6.68;;;4.25;;
18574;SDS011;9417;16.484;102.872;2023-12-20T10:05:15;9.65;;;7.03;;
18574;SDS011;9417;16.484;102.872;2023-12-20T10:07:24;14.13;;;9.73;;
18574;SDS011;9417;16.484;102.872;2023-12-20T10:09:31;15.85;;;11.55;;
18574;SDS011;9417;16.484;102.872;2023-12-20T10:11:40;22.63;;;20.52;;
18574;SDS011;9417;16.484;102.872;2023-12-20T10:13:47;14.60;;;12.00;;
18574;SDS011;9417;16.484;102.872;2023-12-20T10:15:55;11.73;;;9.60;;
18574;SDS011;9417;16.484;102.872;2023-12-20T10:18:03;7.60;;;6.57;;
18574;SDS011;9417;16.484;102.872;2023-12-20T10:20:11;9.88;;;6.13;;
18574;SDS011;9417;16.484;102.872;2023-12-20T10:22:18;9.60;;;6.03;;
18574;SDS011;9417;16.484;102.872;2023-12-20T10:24:28;6.57;;;5.38;;
18574;SDS011;9417;16.484;102.872;2023-12-20T10:26:36;7.10;;;5.47;;
18574;SDS011;9417;16.484;102.872;2023-12-20T10:28:44;9.90;;;5.82;;
18574;SDS011;9417;16.484;102.872;2023-12-20T10:30:52;8.95;;;5.70;;
18574;SDS011;9417;16.484;102.872;2023-12-20T10:32:59;6.53;;;5.60;;
18574;SDS011;9417;16.484;102.872;2023-12-20T10:35:06;11.93;;;7.63;;
18574;SDS011;9417;16.484;102.872;2023-12-20T10:37:14;8.75;;;6.20;;
18574;SDS011;9417;16.484;102.872;2023-12-20T10:39:21;11.05;;;7.18;;
18574;SDS011;9417;16.484;102.872;2023-12-20T10:41:29;8.88;;;6.80;;
18574;SDS011;9417;16.484;102.872;2023-12-20T10:43:38;9.68;;;7.60;;
18574;SDS011;9417;16.484;102.872;2023-12-20T10:45:48;12.52;;;8.82;;
18574;SDS011;9417;16.484;102.872;2023-12-20T10:47:55;12.18;;;9.88;;
18574;SDS011;9417;16.484;102.872;2023-12-20T10:50:05;10.90;;;8.27;;
18574;SDS011;9417;16.484;102.872;2023-12-20T10:52:14;15.23;;;8.88;;
18574;SDS011;9417;16.484;102.872;2023-12-20T10:54:22;12.80;;;8.30;;
18574;SDS011;9417;16.484;102.872;2023-12-20T10:56:29;11.40;;;8.52;;
18574;SDS011;9417;16.484;102.872;2023-12-20T10:58:39;14.95;;;8.93;;
18574;SDS011;9417;16.484;102.872;2023-12-20T11:00:52;13.65;;;8.77;;
18574;SDS011;9417;16.484;102.872;2023-12-20T11:03:09;14.77;;;8.85;;
18574;SDS011;9417;16.484;102.872;2023-12-20T11:05:22;12.82;;;8.93;;
18574;SDS011;9417;16.484;102.872;2023-12-20T11:07:35;11.55;;;8.27;;
18574;SDS011;9417;16.484;102.872;2023-12-20T11:09:47;12.82;;;8.00;;
18574;SDS011;9417;16.484;102.872;2023-12-20T11:12:05;11.07;;;7.70;;
18574;SDS011;9417;16.484;102.872;2023-12-20T11:14:19;15.18;;;8.32;;
18574;SDS011;9417;16.484;102.872;2023-12-20T11:16:32;11.85;;;7.93;;
18574;SDS011;9417;16.484;102.872;2023-12-20T11:18:53;14.07;;;9.55;;
18574;SDS011;9417;16.484;102.872;2023-12-20T11:21:01;19.52;;;16.85;;
18574;SDS011;9417;16.484;102.872;2023-12-20T11:23:09;19.98;;;17.98;;
18574;SDS011;9417;16.484;102.872;2023-12-20T11:25:16;19.08;;;16.95;;
18574;SDS011;9417;16.484;102.872;2023-12-20T11:27:23;16.80;;;9.73;;
18574;SDS011;9417;16.484;102.872;2023-12-20T11:29:31;15.93;;;10.15;;
18574;SDS011;9417;16.484;102.872;2023-12-20T11:31:41;17.80;;;10.82;;
18574;SDS011;9417;16.484;102.872;2023-12-20T11:33:49;16.63;;;10.52;;
18574;SDS011;9417;16.484;102.872;2023-12-20T11:35:59;14.48;;;10.98;;
18574;SDS011;9417;16.484;102.872;2023-12-20T11:38:07;18.77;;;11.75;;
18574;SDS011;9417;16.484;102.872;2023-12-20T11:40:14;17.38;;;11.80;;
18574;SDS011;9417;16.484;102.872;2023-12-20T11:42:22;17.38;;;12.40;;
18574;SDS011;9417;16.484;102.872;2023-12-20T11:44:29;25.85;;;18.80;;
18574;SDS011;9417;16.484;102.872;2023-12-20T11:46:37;25.42;;;18.35;;
18574;SDS011;9417;16.484;102.872;2023-12-20T11:48:46;27.40;;;20.63;;
18574;SDS011;9417;16.484;102.872;2023-12-20T11:50:54;26.75;;;18.10;;
18574;SDS011;9417;16.484;102.872;2023-12-20T11:52:59;28.42;;;21.45;;
18574;SDS011;9417;16.484;102.872;2023-12-20T11:55:07;27.60;;;20.73;;
18574;SDS011;9417;16.484;102.872;2023-12-20T11:57:14;28.23;;;19.98;;
18574;SDS011;9417;16.484;102.872;2023-12-20T11:59:21;30.17;;;20.42;;
18574;SDS011;9417;16.484;102.872;2023-12-20T12:01:28;29.25;;;18.92;;
18574;SDS011;9417;16.484;102.872;2023-12-20T12:03:37;28.58;;;18.30;;
18574;SDS011;9417;16.484;102.872;2023-12-20T12:05:47;23.40;;;17.08;;
18574;SDS011;9417;16.484;102.872;2023-12-20T12:07:55;37.00;;;29.45;;
18574;SDS011;9417;16.484;102.872;2023-12-20T12:10:02;35.97;;;27.85;;
18574;SDS011;9417;16.484;102.872;2023-12-20T12:12:09;35.78;;;26.70;;
18574;SDS011;9417;16.484;102.872;2023-12-20T12:14:17;32.95;;;27.95;;
18574;SDS011;9417;16.484;102.872;2023-12-20T12:16:25;20.02;;;14.73;;
18574;SDS011;9417;16.484;102.872;2023-12-20T12:18:32;22.85;;;14.82;;
18574;SDS011;9417;16.484;102.872;2023-12-20T12:20:40;17.98;;;13.00;;
18574;SDS011;9417;16.484;102.872;2023-12-20T12:22:58;22.27;;;14.35;;
18574;SDS011;9417;16.484;102.872;2023-12-20T12:25:12;26.02;;;17.80;;
18574;SDS011;9417;16.484;102.872;2023-12-20T12:27:20;34.17;;;22.83;;
18574;SDS011;9417;16.484;102.872;2023-12-20T12:29:28;32.97;;;20.77;;